sensor_id;sensor_type;location;lat;lon;timestamp;P1;durP1;ratioP1;P2;durP2;ratioP2
56999;SDS011;42891;50.006;21.964;2024-02-21T00:00:25;15.17;;;9.17;;
56999;SDS011;42891;50.006;21.964;2024-02-21T00:04:26;13.63;;;9.07;;
56999;SDS011;42891;50.006;21.964;2024-02-21T00:08:26;14.63;;;9.97;;
56999;SDS011;42891;50.006;21.964;2024-02-21T00:12:26;13.67;;;9.27;;
56999;SDS011;42891;50.006;21.964;2024-02-21T00:16:27;12.45;;;8.52;;
56999;SDS011;42891;50.006;21.964;2024-02-21T00:20:27;14.47;;;9.90;;
56999;SDS011;42891;50.006;21.964;2024-02-21T00:24:27;14.63;;;9.52;;
56999;SDS011;42891;50.006;21.964;2024-02-21T00:28:27;15.67;;;9.50;;
56999;SDS011;42891;50.006;21.964;2024-02-21T00:32:28;21.40;;;11.10;;
56999;SDS011;42891;50.006;21.964;2024-02-21T00:36:28;18.73;;;9.98;;
56999;SDS011;42891;50.006;21.964;2024-02-21T00:40:28;13.45;;;9.43;;
56999;SDS011;42891;50.006;21.964;2024-02-21T00:44:29;13.75;;;8.98;;
56999;SDS011;42891;50.006;21.964;2024-02-21T00:48:30;13.70;;;9.10;;
56999;SDS011;42891;50.006;21.964;2024-02-21T00:52:30;14.43;;;9.60;;
56999;SDS011;42891;50.006;21.964;2024-02-21T00:56:30;13.88;;;8.95;;
56999;SDS011;42891;50.006;21.964;2024-02-21T01:00:31;14.88;;;9.43;;
56999;SDS011;42891;50.006;21.964;2024-02-21T01:04:31;12.93;;;9.20;;
56999;SDS011;42891;50.006;21.964;2024-02-21T01:08:32;13.63;;;9.50;;
56999;SDS011;42891;50.006;21.964;2024-02-21T01:12:32;18.73;;;9.60;;
56999;SDS011;42891;50.006;21.964;2024-02-21T01:16:32;18.93;;;9.97;;
56999;SDS011;42891;50.006;21.964;2024-02-21T01:20:33;15.52;;;10.05;;
56999;SDS011;42891;50.006;21.964;2024-02-21T01:24:33;16.43;;;10.47;;
56999;SDS011;42891;50.006;21.964;2024-02-21T01:28:34;17.80;;;11.00;;
56999;SDS011;42891;50.006;21.964;2024-02-21T01:32:35;16.10;;;10.55;;
56999;SDS011;42891;50.006;21.964;2024-02-21T01:36:35;16.30;;;10.20;;
56999;SDS011;42891;50.006;21.964;2024-02-21T01:40:36;16.02;;;10.82;;
56999;SDS011;42891;50.006;21.964;2024-02-21T01:44:37;14.75;;;10.73;;
56999;SDS011;42891;50.006;21.964;2024-02-21T01:48:38;13.07;;;9.57;;
56999;SDS011;42891;50.006;21.964;2024-02-21T01:52:38;14.13;;;9.10;;
56999;SDS011;42891;50.006;21.964;2024-02-21T01:56:39;17.75;;;9.65;;
56999;SDS011;42891;50.006;21.964;2024-02-21T02:00:40;15.23;;;9.48;;
56999;SDS011;42891;50.006;21.964;2024-02-21T02:04:42;14.60;;;9.07;;
56999;SDS011;42891;50.006;21.964;2024-02-21T02:08:43;15.60;;;9.68;;
56999;SDS011;42891;50.006;21.964;2024-02-21T02:12:44;13.27;;;9.50;;
56999;SDS011;42891;50.006;21.964;2024-02-21T02:16:47;15.57;;;9.63;;
56999;SDS011;42891;50.006;21.964;2024-02-21T02:20:48;14.50;;;8.80;;
56999;SDS011;42891;50.006;21.964;2024-02-21T02:24:48;14.27;;;7.38;;
56999;SDS011;42891;50.006;21.964;2024-02-21T02:28:49;11.15;;;8.05;;
56999;SDS011;42891;50.006;21.964;2024-02-21T02:32:50;11.48;;;7.50;;
56999;SDS011;42891;50.006;21.964;2024-02-21T02:36:50;11.80;;;7.35;;
56999;SDS011;42891;50.006;21.964;2024-02-21T02:40:50;15.57;;;7.57;;
56999;SDS011;42891;50.006;21.964;2024-02-21T02:44:51;11.10;;;6.72;;
56999;SDS011;42891;50.006;21.964;2024-02-21T02:48:51;10.65;;;7.00;;
56999;SDS011;42891;50.006;21.964;2024-02-21T02:52:52;11.15;;;6.95;;
56999;SDS011;42891;50.006;21.964;2024-02-21T02:56:53;11.35;;;7.10;;
56999;SDS011;42891;50.006;21.964;2024-02-21T03:00:53;10.33;;;7.50;;
56999;SDS011;42891;50.006;21.964;2024-02-21T03:04:54;10.25;;;6.93;;
56999;SDS011;42891;50.006;21.964;2024-02-21T03:08:54;11.67;;;6.90;;
56999;SDS011;42891;50.006;21.964;2024-02-21T03:12:54;11.15;;;6.68;;
56999;SDS011;42891;50.006;21.964;2024-02-21T03:16:55;12.65;;;6.88;;
56999;SDS011;42891;50.006;21.964;2024-02-21T03:20:56;10.88;;;6.20;;
56999;SDS011;42891;50.006;21.964;2024-02-21T03:24:56;13.03;;;7.17;;
56999;SDS011;42891;50.006;21.964;2024-02-21T03:28:56;11.50;;;6.80;;
56999;SDS011;42891;50.006;21.964;2024-02-21T03:32:56;11.63;;;6.43;;
56999;SDS011;42891;50.006;21.964;2024-02-21T03:36:57;11.35;;;6.35;;
56999;SDS011;42891;50.006;21.964;2024-02-21T03:40:58;13.70;;;5.75;;
56999;SDS011;42891;50.006;21.964;2024-02-21T03:44:59;8.43;;;5.85;;
56999;SDS011;42891;50.006;21.964;2024-02-21T03:48:59;10.18;;;5.68;;
56999;SDS011;42891;50.006;21.964;2024-02-21T03:53:00;14.25;;;7.68;;
56999;SDS011;42891;50.006;21.964;2024-02-21T03:57:01;11.65;;;6.97;;
56999;SDS011;42891;50.006;21.964;2024-02-21T04:01:02;12.05;;;6.35;;
56999;SDS011;42891;50.006;21.964;2024-02-21T04:05:03;8.50;;;5.75;;
56999;SDS011;42891;50.006;21.964;2024-02-21T04:09:03;13.95;;;6.65;;
56999;SDS011;42891;50.006;21.964;2024-02-21T04:13:05;11.07;;;6.28;;
56999;SDS011;42891;50.006;21.964;2024-02-21T04:17:06;10.63;;;6.32;;
56999;SDS011;42891;50.006;21.964;2024-02-21T04:21:07;10.68;;;6.00;;
56999;SDS011;42891;50.006;21.964;2024-02-21T04:25:08;9.40;;;5.85;;
56999;SDS011;42891;50.006;21.964;2024-02-21T04:29:08;13.20;;;6.50;;
56999;SDS011;42891;50.006;21.964;2024-02-21T04:33:09;9.35;;;6.45;;
56999;SDS011;42891;50.006;21.964;2024-02-21T04:37:10;26.50;;;13.80;;
56999;SDS011;42891;50.006;21.964;2024-02-21T04:41:10;53.58;;;20.00;;
56999;SDS011;42891;50.006;21.964;2024-02-21T04:45:10;22.60;;;9.32;;
56999;SDS011;42891;50.006;21.964;2024-02-21T04:49:11;11.75;;;7.05;;
56999;SDS011;42891;50.006;21.964;2024-02-21T04:53:11;11.53;;;7.07;;
56999;SDS011;42891;50.006;21.964;2024-02-21T04:57:11;10.27;;;6.22;;
56999;SDS011;42891;50.006;21.964;2024-02-21T05:01:16;12.32;;;6.03;;
56999;SDS011;42891;50.006;21.964;2024-02-21T05:05:17;12.83;;;5.77;;
56999;SDS011;42891;50.006;21.964;2024-02-21T05:09:17;63.47;;;17.75;;
56999;SDS011;42891;50.006;21.964;2024-02-21T05:13:17;103.70;;;27.40;;
56999;SDS011;42891;50.006;21.964;2024-02-21T05:17:18;102.97;;;24.35;;
56999;SDS011;42891;50.006;21.964;2024-02-21T05:21:18;92.57;;;20.60;;
56999;SDS011;42891;50.006;21.964;2024-02-21T05:25:19;50.88;;;14.35;;
56999;SDS011;42891;50.006;21.964;2024-02-21T05:29:19;51.97;;;14.18;;
56999;SDS011;42891;50.006;21.964;2024-02-21T05:33:19;27.37;;;9.27;;
56999;SDS011;42891;50.006;21.964;2024-02-21T05:37:21;20.83;;;8.55;;
56999;SDS011;42891;50.006;21.964;2024-02-21T05:41:21;21.23;;;8.23;;
56999;SDS011;42891;50.006;21.964;2024-02-21T05:45:22;16.70;;;7.25;;
56999;SDS011;42891;50.006;21.964;2024-02-21T05:49:23;10.90;;;6.80;;
56999;SDS011;42891;50.006;21.964;2024-02-21T05:53:23;14.52;;;6.40;;
56999;SDS011;42891;50.006;21.964;2024-02-21T05:57:23;13.30;;;7.60;;
56999;SDS011;42891;50.006;21.964;2024-02-21T06:01:24;12.60;;;8.43;;
56999;SDS011;42891;50.006;21.964;2024-02-21T06:05:24;21.75;;;10.05;;
56999;SDS011;42891;50.006;21.964;2024-02-21T06:09:24;21.05;;;10.05;;
56999;SDS011;42891;50.006;21.964;2024-02-21T06:13:25;24.13;;;13.23;;
56999;SDS011;42891;50.006;21.964;2024-02-21T06:17:25;40.42;;;27.55;;
56999;SDS011;42891;50.006;21.964;2024-02-21T06:21:28;30.10;;;16.08;;
56999;SDS011;42891;50.006;21.964;2024-02-21T06:25:29;25.95;;;13.88;;
56999;SDS011;42891;50.006;21.964;2024-02-21T06:29:29;29.30;;;13.93;;
56999;SDS011;42891;50.006;21.964;2024-02-21T06:33:30;24.60;;;13.10;;
56999;SDS011;42891;50.006;21.964;2024-02-21T06:37:30;29.30;;;13.93;;
56999;SDS011;42891;50.006;21.964;2024-02-21T06:41:32;34.47;;;16.33;;
56999;SDS011;42891;50.006;21.964;2024-02-21T06:45:34;36.42;;;17.05;;
56999;SDS011;42891;50.006;21.964;2024-02-21T06:49:34;34.00;;;15.10;;
56999;SDS011;42891;50.006;21.964;2024-02-21T06:53:35;19.98;;;11.18;;
56999;SDS011;42891;50.006;21.964;2024-02-21T06:57:35;27.95;;;14.65;;
56999;SDS011;42891;50.006;21.964;2024-02-21T07:01:35;25.53;;;13.07;;
56999;SDS011;42891;50.006;21.964;2024-02-21T07:05:36;23.00;;;11.13;;
56999;SDS011;42891;50.006;21.964;2024-02-21T07:09:36;19.40;;;9.27;;
56999;SDS011;42891;50.006;21.964;2024-02-21T07:13:36;16.85;;;9.63;;
56999;SDS011;42891;50.006;21.964;2024-02-21T07:17:36;15.48;;;9.13;;
56999;SDS011;42891;50.006;21.964;2024-02-21T07:21:37;12.77;;;8.70;;
56999;SDS011;42891;50.006;21.964;2024-02-21T07:25:42;18.80;;;9.45;;
56999;SDS011;42891;50.006;21.964;2024-02-21T07:29:42;18.55;;;10.02;;
56999;SDS011;42891;50.006;21.964;2024-02-21T07:33:42;15.13;;;9.00;;
56999;SDS011;42891;50.006;21.964;2024-02-21T07:37:43;21.15;;;9.45;;
56999;SDS011;42891;50.006;21.964;2024-02-21T07:41:43;14.55;;;8.65;;
56999;SDS011;42891;50.006;21.964;2024-02-21T07:45:46;23.15;;;9.18;;
56999;SDS011;42891;50.006;21.964;2024-02-21T07:49:46;18.73;;;9.10;;
56999;SDS011;42891;50.006;21.964;2024-02-21T07:53:48;25.23;;;10.30;;
56999;SDS011;42891;50.006;21.964;2024-02-21T07:57:49;18.38;;;9.18;;
56999;SDS011;42891;50.006;21.964;2024-02-21T08:01:49;18.65;;;8.75;;
56999;SDS011;42891;50.006;21.964;2024-02-21T08:05:50;18.02;;;7.93;;
56999;SDS011;42891;50.006;21.964;2024-02-21T08:09:50;16.85;;;7.80;;
56999;SDS011;42891;50.006;21.964;2024-02-21T08:13:50;15.15;;;7.35;;
56999;SDS011;42891;50.006;21.964;2024-02-21T08:17:51;14.20;;;7.22;;
56999;SDS011;42891;50.006;21.964;2024-02-21T08:21:51;16.53;;;7.20;;
56999;SDS011;42891;50.006;21.964;2024-02-21T08:25:51;11.65;;;5.78;;
56999;SDS011;42891;50.006;21.964;2024-02-21T08:29:51;16.27;;;7.23;;
56999;SDS011;42891;50.006;21.964;2024-02-21T08:33:52;12.40;;;5.73;;
56999;SDS011;42891;50.006;21.964;2024-02-21T08:37:52;17.70;;;6.93;;
56999;SDS011;42891;50.006;21.964;2024-02-21T08:41:52;15.38;;;6.53;;
56999;SDS011;42891;50.006;21.964;2024-02-21T08:45:53;14.75;;;6.20;;
56999;SDS011;42891;50.006;21.964;2024-02-21T08:49:53;11.57;;;5.90;;
56999;SDS011;42891;50.006;21.964;2024-02-21T08:53:53;13.55;;;6.38;;
56999;SDS011;42891;50.006;21.964;2024-02-21T08:57:54;14.52;;;6.78;;
56999;SDS011;42891;50.006;21.964;2024-02-21T09:01:54;17.30;;;6.45;;
56999;SDS011;42891;50.006;21.964;2024-02-21T09:05:54;10.33;;;5.53;;
56999;SDS011;42891;50.006;21.964;2024-02-21T09:09:55;12.97;;;5.57;;
56999;SDS011;42891;50.006;21.964;2024-02-21T09:13:55;12.27;;;4.93;;
56999;SDS011;42891;50.006;21.964;2024-02-21T09:17:55;10.20;;;5.67;;
56999;SDS011;42891;50.006;21.964;2024-02-21T09:21:55;12.85;;;5.60;;
56999;SDS011;42891;50.006;21.964;2024-02-21T09:25:56;11.43;;;6.23;;
56999;SDS011;42891;50.006;21.964;2024-02-21T09:29:56;10.13;;;5.47;;
56999;SDS011;42891;50.006;21.964;2024-02-21T09:33:56;11.65;;;5.22;;
56999;SDS011;42891;50.006;21.964;2024-02-21T09:37:57;13.38;;;4.80;;
56999;SDS011;42891;50.006;21.964;2024-02-21T09:42:03;14.90;;;5.15;;
56999;SDS011;42891;50.006;21.964;2024-02-21T09:46:06;6.30;;;4.22;;
56999;SDS011;42891;50.006;21.964;2024-02-21T09:50:10;8.68;;;4.60;;
56999;SDS011;42891;50.006;21.964;2024-02-21T09:54:10;10.10;;;4.72;;
56999;SDS011;42891;50.006;21.964;2024-02-21T09:58:11;9.07;;;4.00;;
56999;SDS011;42891;50.006;21.964;2024-02-21T10:02:11;8.77;;;4.45;;
56999;SDS011;42891;50.006;21.964;2024-02-21T10:06:12;10.88;;;4.53;;
56999;SDS011;42891;50.006;21.964;2024-02-21T10:10:12;8.07;;;4.50;;
56999;SDS011;42891;50.006;21.964;2024-02-21T10:14:13;9.63;;;4.55;;
56999;SDS011;42891;50.006;21.964;2024-02-21T10:18:14;10.95;;;4.75;;
56999;SDS011;42891;50.006;21.964;2024-02-21T10:22:17;13.38;;;4.40;;
56999;SDS011;42891;50.006;21.964;2024-02-21T10:26:19;8.13;;;3.70;;
56999;SDS011;42891;50.006;21.964;2024-02-21T10:30:20;9.88;;;4.30;;
56999;SDS011;42891;50.006;21.964;2024-02-21T10:34:20;10.52;;;4.57;;
56999;SDS011;42891;50.006;21.964;2024-02-21T10:38:21;10.77;;;4.50;;
56999;SDS011;42891;50.006;21.964;2024-02-21T10:42:21;11.43;;;4.20;;
56999;SDS011;42891;50.006;21.964;2024-02-21T10:46:22;9.45;;;3.97;;
56999;SDS011;42891;50.006;21.964;2024-02-21T10:50:24;9.32;;;4.55;;
56999;SDS011;42891;50.006;21.964;2024-02-21T10:54:38;10.82;;;4.10;;
56999;SDS011;42891;50.006;21.964;2024-02-21T10:58:43;8.82;;;4.13;;
56999;SDS011;42891;50.006;21.964;2024-02-21T11:02:46;9.85;;;4.30;;
56999;SDS011;42891;50.006;21.964;2024-02-21T11:06:47;12.38;;;4.55;;
56999;SDS011;42891;50.006;21.964;2024-02-21T11:10:48;9.90;;;3.55;;
56999;SDS011;42891;50.006;21.964;2024-02-21T11:14:48;10.35;;;4.82;;
56999;SDS011;42891;50.006;21.964;2024-02-21T11:18:49;10.77;;;3.90;;
56999;SDS011;42891;50.006;21.964;2024-02-21T11:22:49;8.07;;;3.95;;
56999;SDS011;42891;50.006;21.964;2024-02-21T11:26:50;11.85;;;5.00;;
56999;SDS011;42891;50.006;21.964;2024-02-21T11:30:50;11.82;;;5.95;;
56999;SDS011;42891;50.006;21.964;2024-02-21T11:39:04;7.15;;;3.38;;
56999;SDS011;42891;50.006;21.964;2024-02-21T11:43:05;6.68;;;3.45;;
56999;SDS011;42891;50.006;21.964;2024-02-21T11:47:06;11.77;;;4.75;;
56999;SDS011;42891;50.006;21.964;2024-02-21T11:51:07;12.77;;;5.22;;
56999;SDS011;42891;50.006;21.964;2024-02-21T11:55:07;10.80;;;5.00;;
56999;SDS011;42891;50.006;21.964;2024-02-21T11:59:08;8.82;;;4.70;;
56999;SDS011;42891;50.006;21.964;2024-02-21T12:03:08;10.95;;;5.53;;
56999;SDS011;42891;50.006;21.964;2024-02-21T12:07:09;16.00;;;8.60;;
56999;SDS011;42891;50.006;21.964;2024-02-21T12:11:16;12.48;;;5.47;;
56999;SDS011;42891;50.006;21.964;2024-02-21T12:15:21;13.45;;;5.45;;
56999;SDS011;42891;50.006;21.964;2024-02-21T12:19:21;15.55;;;6.43;;
56999;SDS011;42891;50.006;21.964;2024-02-21T12:23:22;8.18;;;3.80;;
56999;SDS011;42891;50.006;21.964;2024-02-21T12:27:22;9.35;;;4.10;;
56999;SDS011;42891;50.006;21.964;2024-02-21T12:31:23;7.57;;;4.25;;
56999;SDS011;42891;50.006;21.964;2024-02-21T12:35:24;6.65;;;3.22;;
56999;SDS011;42891;50.006;21.964;2024-02-21T12:39:24;9.57;;;3.70;;
56999;SDS011;42891;50.006;21.964;2024-02-21T12:43:27;8.10;;;3.67;;
56999;SDS011;42891;50.006;21.964;2024-02-21T12:47:27;8.05;;;3.08;;
56999;SDS011;42891;50.006;21.964;2024-02-21T12:51:28;7.17;;;3.63;;
56999;SDS011;42891;50.006;21.964;2024-02-21T12:55:29;6.97;;;3.55;;
56999;SDS011;42891;50.006;21.964;2024-02-21T12:59:30;8.23;;;3.72;;
56999;SDS011;42891;50.006;21.964;2024-02-21T13:03:30;7.40;;;3.30;;
56999;SDS011;42891;50.006;21.964;2024-02-21T13:07:30;8.45;;;3.35;;
56999;SDS011;42891;50.006;21.964;2024-02-21T13:11:32;7.95;;;3.78;;
56999;SDS011;42891;50.006;21.964;2024-02-21T13:15:32;9.18;;;3.90;;
56999;SDS011;42891;50.006;21.964;2024-02-21T13:19:32;9.85;;;3.15;;
56999;SDS011;42891;50.006;21.964;2024-02-21T13:23:33;6.40;;;3.63;;
56999;SDS011;42891;50.006;21.964;2024-02-21T13:27:33;8.98;;;3.45;;
56999;SDS011;42891;50.006;21.964;2024-02-21T13:31:33;7.00;;;3.50;;
56999;SDS011;42891;50.006;21.964;2024-02-21T13:35:34;6.15;;;3.17;;
56999;SDS011;42891;50.006;21.964;2024-02-21T13:39:37;5.65;;;3.20;;
56999;SDS011;42891;50.006;21.964;2024-02-21T13:43:37;7.63;;;3.30;;
56999;SDS011;42891;50.006;21.964;2024-02-21T13:47:37;6.22;;;3.90;;
56999;SDS011;42891;50.006;21.964;2024-02-21T13:51:39;12.07;;;4.30;;
56999;SDS011;42891;50.006;21.964;2024-02-21T13:55:40;15.00;;;6.53;;
56999;SDS011;42891;50.006;21.964;2024-02-21T13:59:41;22.70;;;8.57;;
56999;SDS011;42891;50.006;21.964;2024-02-21T14:03:42;13.93;;;6.32;;
56999;SDS011;42891;50.006;21.964;2024-02-21T14:07:42;8.23;;;5.00;;
56999;SDS011;42891;50.006;21.964;2024-02-21T14:11:43;11.70;;;5.97;;
56999;SDS011;42891;50.006;21.964;2024-02-21T14:15:45;11.82;;;5.40;;
56999;SDS011;42891;50.006;21.964;2024-02-21T14:19:49;12.88;;;5.88;;
56999;SDS011;42891;50.006;21.964;2024-02-21T14:23:51;18.15;;;9.82;;
56999;SDS011;42891;50.006;21.964;2024-02-21T14:27:52;26.42;;;22.65;;
56999;SDS011;42891;50.006;21.964;2024-02-21T14:31:53;19.47;;;14.10;;
56999;SDS011;42891;50.006;21.964;2024-02-21T14:35:53;20.10;;;8.40;;
56999;SDS011;42891;50.006;21.964;2024-02-21T14:39:53;67.90;;;37.63;;
56999;SDS011;42891;50.006;21.964;2024-02-21T14:43:54;20.00;;;11.90;;
56999;SDS011;42891;50.006;21.964;2024-02-21T14:47:55;41.42;;;24.20;;
56999;SDS011;42891;50.006;21.964;2024-02-21T14:51:56;27.00;;;16.23;;
56999;SDS011;42891;50.006;21.964;2024-02-21T14:55:56;26.67;;;16.70;;
56999;SDS011;42891;50.006;21.964;2024-02-21T14:59:57;29.77;;;17.45;;
56999;SDS011;42891;50.006;21.964;2024-02-21T15:03:58;90.97;;;54.35;;
56999;SDS011;42891;50.006;21.964;2024-02-21T15:07:59;78.43;;;39.20;;
56999;SDS011;42891;50.006;21.964;2024-02-21T15:11:59;111.72;;;53.47;;
56999;SDS011;42891;50.006;21.964;2024-02-21T15:15:59;44.55;;;23.05;;
56999;SDS011;42891;50.006;21.964;2024-02-21T15:20:00;41.40;;;24.75;;
56999;SDS011;42891;50.006;21.964;2024-02-21T15:24:01;42.40;;;22.83;;
56999;SDS011;42891;50.006;21.964;2024-02-21T15:28:03;71.22;;;36.47;;
56999;SDS011;42891;50.006;21.964;2024-02-21T15:32:06;61.78;;;35.70;;
56999;SDS011;42891;50.006;21.964;2024-02-21T15:36:06;40.13;;;22.52;;
56999;SDS011;42891;50.006;21.964;2024-02-21T15:40:07;30.88;;;18.30;;
56999;SDS011;42891;50.006;21.964;2024-02-21T15:44:08;31.58;;;17.90;;
56999;SDS011;42891;50.006;21.964;2024-02-21T15:48:08;37.15;;;22.13;;
56999;SDS011;42891;50.006;21.964;2024-02-21T15:52:08;35.90;;;21.42;;
56999;SDS011;42891;50.006;21.964;2024-02-21T15:56:09;48.30;;;25.15;;
56999;SDS011;42891;50.006;21.964;2024-02-21T16:00:09;40.37;;;21.37;;
56999;SDS011;42891;50.006;21.964;2024-02-21T16:04:12;42.80;;;21.83;;
56999;SDS011;42891;50.006;21.964;2024-02-21T16:08:14;38.92;;;21.77;;
56999;SDS011;42891;50.006;21.964;2024-02-21T16:12:18;32.70;;;17.95;;
56999;SDS011;42891;50.006;21.964;2024-02-21T16:16:18;37.88;;;21.27;;
56999;SDS011;42891;50.006;21.964;2024-02-21T16:20:19;51.50;;;30.35;;
56999;SDS011;42891;50.006;21.964;2024-02-21T16:24:19;49.03;;;28.42;;
56999;SDS011;42891;50.006;21.964;2024-02-21T16:28:20;43.60;;;25.08;;
56999;SDS011;42891;50.006;21.964;2024-02-21T16:32:20;37.03;;;21.97;;
56999;SDS011;42891;50.006;21.964;2024-02-21T16:36:21;34.37;;;21.63;;
56999;SDS011;42891;50.006;21.964;2024-02-21T16:40:22;32.67;;;18.27;;
56999;SDS011;42891;50.006;21.964;2024-02-21T16:44:22;24.20;;;13.88;;
56999;SDS011;42891;50.006;21.964;2024-02-21T16:48:24;29.02;;;17.17;;
56999;SDS011;42891;50.006;21.964;2024-02-21T16:52:24;26.92;;;16.73;;
56999;SDS011;42891;50.006;21.964;2024-02-21T16:56:25;37.95;;;20.77;;
56999;SDS011;42891;50.006;21.964;2024-02-21T17:00:25;55.05;;;28.50;;
56999;SDS011;42891;50.006;21.964;2024-02-21T17:04:26;73.05;;;34.75;;
56999;SDS011;42891;50.006;21.964;2024-02-21T17:08:26;50.87;;;29.23;;
56999;SDS011;42891;50.006;21.964;2024-02-21T17:12:27;59.22;;;32.22;;
56999;SDS011;42891;50.006;21.964;2024-02-21T17:16:30;84.97;;;45.90;;
56999;SDS011;42891;50.006;21.964;2024-02-21T17:20:31;85.13;;;42.83;;
56999;SDS011;42891;50.006;21.964;2024-02-21T17:24:31;80.35;;;43.40;;
56999;SDS011;42891;50.006;21.964;2024-02-21T17:28:32;95.97;;;56.23;;
56999;SDS011;42891;50.006;21.964;2024-02-21T17:32:32;105.75;;;61.90;;
56999;SDS011;42891;50.006;21.964;2024-02-21T17:36:34;97.95;;;56.50;;
56999;SDS011;42891;50.006;21.964;2024-02-21T17:40:34;99.90;;;56.00;;
56999;SDS011;42891;50.006;21.964;2024-02-21T17:44:35;70.63;;;39.25;;
56999;SDS011;42891;50.006;21.964;2024-02-21T17:48:37;57.03;;;33.35;;
56999;SDS011;42891;50.006;21.964;2024-02-21T17:52:37;87.32;;;46.78;;
56999;SDS011;42891;50.006;21.964;2024-02-21T17:56:38;109.60;;;59.10;;
56999;SDS011;42891;50.006;21.964;2024-02-21T18:00:38;75.60;;;42.50;;
56999;SDS011;42891;50.006;21.964;2024-02-21T18:04:43;49.28;;;30.50;;
56999;SDS011;42891;50.006;21.964;2024-02-21T18:08:44;49.92;;;28.52;;
56999;SDS011;42891;50.006;21.964;2024-02-21T18:12:44;46.08;;;25.60;;
56999;SDS011;42891;50.006;21.964;2024-02-21T18:16:44;48.80;;;24.58;;
56999;SDS011;42891;50.006;21.964;2024-02-21T18:20:45;154.25;;;73.60;;
56999;SDS011;42891;50.006;21.964;2024-02-21T18:24:45;61.92;;;32.88;;
56999;SDS011;42891;50.006;21.964;2024-02-21T18:28:46;53.53;;;28.27;;
56999;SDS011;42891;50.006;21.964;2024-02-21T18:32:47;47.63;;;24.77;;
56999;SDS011;42891;50.006;21.964;2024-02-21T18:36:50;62.90;;;31.73;;
56999;SDS011;42891;50.006;21.964;2024-02-21T18:40:50;119.50;;;53.10;;
56999;SDS011;42891;50.006;21.964;2024-02-21T18:44:51;87.75;;;41.47;;
56999;SDS011;42891;50.006;21.964;2024-02-21T18:48:53;52.33;;;24.13;;
56999;SDS011;42891;50.006;21.964;2024-02-21T18:52:54;30.10;;;14.48;;
56999;SDS011;42891;50.006;21.964;2024-02-21T18:56:56;43.13;;;24.33;;
56999;SDS011;42891;50.006;21.964;2024-02-21T19:00:56;25.80;;;15.27;;
56999;SDS011;42891;50.006;21.964;2024-02-21T19:04:56;99.23;;;38.90;;
56999;SDS011;42891;50.006;21.964;2024-02-21T19:08:56;56.87;;;34.93;;
56999;SDS011;42891;50.006;21.964;2024-02-21T19:12:57;24.13;;;13.27;;
56999;SDS011;42891;50.006;21.964;2024-02-21T19:16:57;40.47;;;24.40;;
56999;SDS011;42891;50.006;21.964;2024-02-21T19:21:00;22.35;;;14.20;;
56999;SDS011;42891;50.006;21.964;2024-02-21T19:25:00;16.08;;;11.50;;
56999;SDS011;42891;50.006;21.964;2024-02-21T19:29:05;36.33;;;19.30;;
56999;SDS011;42891;50.006;21.964;2024-02-21T19:33:06;57.25;;;25.33;;
56999;SDS011;42891;50.006;21.964;2024-02-21T19:37:12;58.97;;;31.25;;
56999;SDS011;42891;50.006;21.964;2024-02-21T19:41:14;50.95;;;23.48;;
56999;SDS011;42891;50.006;21.964;2024-02-21T19:45:15;72.38;;;33.35;;
56999;SDS011;42891;50.006;21.964;2024-02-21T19:49:15;58.90;;;30.75;;
56999;SDS011;42891;50.006;21.964;2024-02-21T19:53:15;64.10;;;34.43;;
56999;SDS011;42891;50.006;21.964;2024-02-21T19:57:16;65.45;;;31.60;;
56999;SDS011;42891;50.006;21.964;2024-02-21T20:01:16;75.60;;;39.77;;
56999;SDS011;42891;50.006;21.964;2024-02-21T20:05:17;58.10;;;29.08;;
56999;SDS011;42891;50.006;21.964;2024-02-21T20:09:18;87.45;;;45.03;;
56999;SDS011;42891;50.006;21.964;2024-02-21T20:13:19;34.60;;;17.05;;
56999;SDS011;42891;50.006;21.964;2024-02-21T20:17:19;27.13;;;14.30;;
56999;SDS011;42891;50.006;21.964;2024-02-21T20:21:20;48.67;;;23.65;;
56999;SDS011;42891;50.006;21.964;2024-02-21T20:25:20;44.95;;;21.73;;
56999;SDS011;42891;50.006;21.964;2024-02-21T20:29:20;29.30;;;14.77;;
56999;SDS011;42891;50.006;21.964;2024-02-21T20:33:22;33.30;;;17.20;;
56999;SDS011;42891;50.006;21.964;2024-02-21T20:37:23;33.60;;;14.98;;
56999;SDS011;42891;50.006;21.964;2024-02-21T20:41:23;26.33;;;13.57;;
56999;SDS011;42891;50.006;21.964;2024-02-21T20:45:23;48.53;;;26.65;;
56999;SDS011;42891;50.006;21.964;2024-02-21T20:49:24;100.22;;;47.50;;
56999;SDS011;42891;50.006;21.964;2024-02-21T20:53:24;57.38;;;28.50;;
56999;SDS011;42891;50.006;21.964;2024-02-21T20:57:27;40.40;;;22.45;;
56999;SDS011;42891;50.006;21.964;2024-02-21T21:01:27;50.33;;;28.03;;
56999;SDS011;42891;50.006;21.964;2024-02-21T21:05:29;30.90;;;17.55;;
56999;SDS011;42891;50.006;21.964;2024-02-21T21:09:29;22.73;;;12.60;;
56999;SDS011;42891;50.006;21.964;2024-02-21T21:13:29;28.57;;;15.47;;
56999;SDS011;42891;50.006;21.964;2024-02-21T21:17:33;31.88;;;15.35;;
56999;SDS011;42891;50.006;21.964;2024-02-21T21:21:34;23.45;;;12.13;;
56999;SDS011;42891;50.006;21.964;2024-02-21T21:25:34;27.27;;;12.30;;
56999;SDS011;42891;50.006;21.964;2024-02-21T21:29:37;23.08;;;11.82;;
56999;SDS011;42891;50.006;21.964;2024-02-21T21:33:37;44.30;;;23.27;;
56999;SDS011;42891;50.006;21.964;2024-02-21T21:37:37;26.63;;;12.73;;
56999;SDS011;42891;50.006;21.964;2024-02-21T21:41:39;21.55;;;12.32;;
56999;SDS011;42891;50.006;21.964;2024-02-21T21:45:40;19.40;;;12.63;;
56999;SDS011;42891;50.006;21.964;2024-02-21T21:49:40;18.35;;;10.85;;
56999;SDS011;42891;50.006;21.964;2024-02-21T21:53:40;16.80;;;10.37;;
56999;SDS011;42891;50.006;21.964;2024-02-21T21:57:44;21.02;;;11.18;;
56999;SDS011;42891;50.006;21.964;2024-02-21T22:01:45;28.52;;;16.30;;
56999;SDS011;42891;50.006;21.964;2024-02-21T22:05:45;17.73;;;10.80;;
56999;SDS011;42891;50.006;21.964;2024-02-21T22:09:46;20.70;;;11.68;;
56999;SDS011;42891;50.006;21.964;2024-02-21T22:13:46;22.67;;;12.60;;
56999;SDS011;42891;50.006;21.964;2024-02-21T22:17:48;30.85;;;19.15;;
56999;SDS011;42891;50.006;21.964;2024-02-21T22:21:49;47.93;;;23.33;;
56999;SDS011;42891;50.006;21.964;2024-02-21T22:25:49;25.60;;;14.70;;
56999;SDS011;42891;50.006;21.964;2024-02-21T22:29:50;25.40;;;15.20;;
56999;SDS011;42891;50.006;21.964;2024-02-21T22:33:52;27.63;;;16.27;;
56999;SDS011;42891;50.006;21.964;2024-02-21T22:37:53;23.98;;;13.57;;
56999;SDS011;42891;50.006;21.964;2024-02-21T22:41:53;18.07;;;12.47;;
56999;SDS011;42891;50.006;21.964;2024-02-21T22:45:54;26.10;;;15.38;;
56999;SDS011;42891;50.006;21.964;2024-02-21T22:49:55;21.48;;;13.25;;
56999;SDS011;42891;50.006;21.964;2024-02-21T22:53:55;21.27;;;13.20;;
56999;SDS011;42891;50.006;21.964;2024-02-21T22:57:55;22.33;;;12.82;;
56999;SDS011;42891;50.006;21.964;2024-02-21T23:01:56;33.10;;;19.08;;
56999;SDS011;42891;50.006;21.964;2024-02-21T23:05:57;16.90;;;10.23;;
56999;SDS011;42891;50.006;21.964;2024-02-21T23:09:58;16.35;;;9.65;;
56999;SDS011;42891;50.006;21.964;2024-02-21T23:14:00;15.40;;;9.93;;
56999;SDS011;42891;50.006;21.964;2024-02-21T23:18:00;16.88;;;10.07;;
56999;SDS011;42891;50.006;21.964;2024-02-21T23:22:01;15.23;;;10.10;;